Thunder radar more information blitzortung!


Radar de pluja more information rain snow radar


Visita la nostra xarxa de llocs de meteo:

Template documentation
and downloads

And another site



No particular awareness of the weather is required.    There are no Weather-warnings

Pagina Historial Weather Underground text

Diari Resum May 5, 2016 Unitats:  Mètric    Imperial   Tant
« Previous Dia
SegĂźent Dia »
Diari Setmana Mensual Anual Personalitzada
  Maxima: Minima: Media:
Temperatura: -17.8 °C -13.1 °C -8.4 °C
Punt de rosada: -17.8 °C -15.2 °C -13.7 °C
Humitat: Humidity % 35 % 55 %
Wind Speed: 0 km/h 0 km/h 16.4 km/h
RĂ fegues de vent: 0 km/h - -
Vent:- - ESE
Pression baro: 0 hPa 34327.3 hPa -
Precipitacions: 0 mm    
Historical Graphs
 
 
Dades de taula per May 5, 2016
Temps Temperatura Punt de rosada Pression baro Vent Wind Speed RĂ fegues de vent Humitat Rainfall Rate (Hourly)
-17.8 °C -17.8 °C 0 hPa Calm     Humidity % 0 mm
00:00 -10.2 °C -13.8 °C 34533.8 hPa SW 2.6 km/h 5.1 km/h 65 % 0 mm
00:10 -11.9 °C -14.3 °C 34462.7 hPa Calm   5.1 km/h 75 % 0 mm
00:20 -12 °C -14.3 °C 34462.7 hPa NNW 2.6 km/h 5.1 km/h 75 % 0 mm
00:30 -12.6 °C -15 °C 34462.7 hPa SW 5.1 km/h 7.7 km/h 74 % 0 mm
00:40 -12.7 °C -15.1 °C 34462.7 hPa SW 2.6 km/h 7.7 km/h 75 % 0 mm
00:50 -12.8 °C -15.1 °C 34462.7 hPa SW 5.1 km/h 7.7 km/h 75 % 0 mm
01:00 -13 °C -15.1 °C 34462.7 hPa SW 2.6 km/h 7.7 km/h 77 % 0 mm
01:10 -13.1 °C -15.2 °C 34428.8 hPa SW 5.1 km/h 7.7 km/h 77 % 0 mm
01:20 -13.1 °C -15.2 °C 34428.8 hPa WSW 2.6 km/h 5.1 km/h 77 % 0 mm
01:30 -13.1 °C -15.1 °C 34428.8 hPa Calm   2.6 km/h 78 % 0 mm
01:40 -13 °C -15 °C 34428.8 hPa Calm   2.6 km/h 78 % 0 mm
01:50 -12.9 °C -14.9 °C 34428.8 hPa Calm   5.1 km/h 78 % 0 mm
02:00 -12.8 °C -14.8 °C 34462.7 hPa Calm     78 % 0 mm
02:10 -12.6 °C -14.8 °C 34428.8 hPa NNE 5.1 km/h 5.1 km/h 77 % 0 mm
02:20 -12.7 °C -14.9 °C 34428.8 hPa NNE 2.6 km/h 5.1 km/h 76 % 0 mm
02:30 -12.7 °C -14.9 °C 34462.7 hPa NW 5.1 km/h 5.1 km/h 76 % 0 mm
02:40 -12.5 °C -14.7 °C 34462.7 hPa WSW 2.6 km/h 5.1 km/h 76 % 0 mm
02:50 -12 °C -14.3 °C 34462.7 hPa West 7.7 km/h 7.7 km/h 76 % 0 mm
03:00 -11.6 °C -14 °C 34462.7 hPa NNE 5.1 km/h 7.7 km/h 75 % 0 mm
03:10 -11.4 °C -13.9 °C 34462.7 hPa NE 5.1 km/h 12.9 km/h 74 % 0 mm
03:20 -11.2 °C -13.8 °C 34462.7 hPa ENE 7.7 km/h 10.3 km/h 73 % 0 mm
03:30 -11 °C -13.6 °C 34462.7 hPa ENE 5.1 km/h 10.3 km/h 73 % 0 mm
03:40 -10.7 °C -13.4 °C 34462.7 hPa NE 2.6 km/h 7.7 km/h 72 % 0 mm
03:50 -10.5 °C -13.4 °C 34462.7 hPa NE 7.7 km/h 7.7 km/h 71 % 0 mm
04:00 -10.2 °C -13.2 °C 34462.7 hPa NNE 7.7 km/h 10.3 km/h 70 % 0 mm
04:10 -10.1 °C -13.2 °C 34428.8 hPa NE 7.7 km/h 10.3 km/h 69 % 0 mm
04:20 -9.8 °C -13 °C 34428.8 hPa NE 2.6 km/h 10.3 km/h 68 % 0 mm
04:30 -9.4 °C -12.7 °C 34428.8 hPa NE 2.6 km/h 7.7 km/h 68 % 0 mm
04:40 -9.2 °C -12.7 °C 34428.8 hPa NNE 7.7 km/h 7.7 km/h 66 % 0 mm
04:50 -9 °C -12.7 °C 34428.8 hPa NNE 5.1 km/h 7.7 km/h 65 % 0 mm
05:00 -8.7 °C -12.5 °C 34428.8 hPa NE 5.1 km/h 7.7 km/h 64 % 0 mm
05:10 -8.5 °C -12.4 °C 34395 hPa NE 7.7 km/h 7.7 km/h 63 % 0 mm
05:20 -8.3 °C -12.6 °C 34395 hPa NE 5.1 km/h 7.7 km/h 60 % 0 mm
05:30 -8 °C -12.5 °C 34395 hPa East 2.6 km/h 10.3 km/h 59 % 0 mm
05:35 -7.8 °C -12.3 °C 34395 hPa East 5.1 km/h 12.9 km/h 59 % 0 mm
10:36 -7.8 °C -12.3 °C 34395 hPa ESE 9 km/h 10.3 km/h 59 % 0 mm
10:41 -7.7 °C -12.3 °C 34395 hPa ESE 7.6 km/h 8.5 km/h 58 % 0 mm
10:46 -7.7 °C -12.4 °C 34395 hPa East 15 km/h 15 km/h 57 % 0 mm
10:51 -7.6 °C -12.6 °C 34395 hPa NE 11.9 km/h 11.9 km/h 56 % 0 mm
10:56 -7.7 °C -12.8 °C 34361.1 hPa ENE 15 km/h 15 km/h 55 % 0 mm
11:01 -7.6 °C -12.9 °C 34361.1 hPa ENE 11.9 km/h 11.9 km/h 54 % 0 mm
11:06 -7.3 °C -12.4 °C 34361.1 hPa East 16.1 km/h 16.1 km/h 55 % 0 mm
11:11 -7.2 °C -12.6 °C 34361.1 hPa SSE 11.9 km/h 11.9 km/h 53 % 0 mm
11:16 -7.1 °C -12.5 °C 34361.1 hPa South 6 km/h 6 km/h 53 % 0 mm
11:21 -6.9 °C -12.6 °C 34361.1 hPa ENE 8 km/h 8 km/h 52 % 0 mm
11:26 -6.9 °C -12.6 °C 34395 hPa ENE 10.3 km/h 10.3 km/h 52 % 0 mm
11:31 -6.8 °C -12.4 °C 34395 hPa ESE 9.3 km/h 9.3 km/h 52 % 0 mm
11:36 -6.7 °C -12.6 °C 34395 hPa SE 15 km/h 15 km/h 51 % 0 mm
11:41 -6.6 °C -12.4 °C 34395 hPa ENE 15 km/h 15 km/h 51 % 0 mm
11:46 -6.6 °C -12.4 °C 34395 hPa East 20.9 km/h 20.9 km/h 51 % 0 mm
11:51 -6.5 °C -12.3 °C 34395 hPa NE 9 km/h 11.1 km/h 51 % 0 mm
11:56 -6.3 °C -12.3 °C 34395 hPa NNE 15.6 km/h 15.6 km/h 50 % 0 mm
12:01 -6.3 °C -12.4 °C 34395 hPa ESE 20.9 km/h 20.9 km/h 49 % 0 mm
12:06 -6.2 °C -12.6 °C 34395 hPa ESE 16.6 km/h 16.6 km/h 48 % 0 mm
12:11 -6.2 °C -12.5 °C 34395 hPa SSW 15 km/h 15 km/h 48 % 0 mm
12:16 -6 °C -12.6 °C 34395 hPa ENE 11.9 km/h 11.9 km/h 47 % 0 mm
12:21 -5.9 °C -12.4 °C 34395 hPa ESE 11.9 km/h 11.9 km/h 47 % 0 mm
12:26 -5.9 °C -12.6 °C 34395 hPa ESE 17.9 km/h 18.3 km/h 46 % 0 mm
12:31 -5.9 °C -12.8 °C 34395 hPa ESE 20.9 km/h 20.9 km/h 45 % 0 mm
12:36 -5.8 °C -12.7 °C 34395 hPa SE 11.9 km/h 11.9 km/h 45 % 0 mm
12:41 -5.7 °C -12.8 °C 34395 hPa ESE 20.9 km/h 20.9 km/h 44 % 0 mm
12:46 -5.7 °C -12.9 °C 34395 hPa ESE 18.3 km/h 18.3 km/h 43 % 0 mm
12:51 -5.6 °C -12.9 °C 34395 hPa SSW 11.9 km/h 11.9 km/h 43 % 0 mm
12:56 -5.4 °C -12.6 °C 34395 hPa ENE 23.8 km/h 23.8 km/h 44 % 0 mm
13:01 -5.7 °C -13.2 °C 34395 hPa ESE 20.9 km/h 20.9 km/h 42 % 0 mm
13:06 -5.4 °C -12.9 °C 34395 hPa SSW 16.1 km/h 16.1 km/h 42 % 0 mm
13:11 -5.5 °C -13.2 °C 34395 hPa SSE 23.8 km/h 23.8 km/h 41 % 0 mm
13:16 -5.4 °C -13.3 °C 34395 hPa ESE 20.9 km/h 20.9 km/h 40 % 0 mm
13:21 -5.4 °C -13.4 °C 34395 hPa SE 17.9 km/h 17.9 km/h 40 % 0 mm
13:26 -5.4 °C -13.3 °C 34361.1 hPa WNW 20.9 km/h 20.9 km/h 40 % 0 mm
13:31 -5.4 °C -13.5 °C 34361.1 hPa ENE 26.9 km/h 26.9 km/h 39 % 0 mm
13:36 -5.4 °C -13.5 °C 34361.1 hPa South 15 km/h 15 km/h 39 % 0 mm
13:41 -5.3 °C -13.4 °C 34361.1 hPa South 26.9 km/h 26.9 km/h 39 % 0 mm
13:46 -5.4 °C -13.8 °C 34361.1 hPa ESE 34.1 km/h 34.1 km/h 38 % 0 mm
13:51 -5.7 °C -14 °C 34361.1 hPa ENE 23.8 km/h 23.8 km/h 38 % 0 mm
13:56 -5.7 °C -13.8 °C 34361.1 hPa South 19.2 km/h 19.2 km/h 39 % 0 mm
14:01 -5.7 °C -14 °C 34361.1 hPa NE 26.9 km/h 26.9 km/h 38 % 0 mm
14:06 -5.7 °C -14 °C 34361.1 hPa NE 23.8 km/h 23.8 km/h 38 % 0 mm
14:11 -5.7 °C -14.2 °C 34361.1 hPa ESE 20.9 km/h 20.9 km/h 37 % 0 mm
14:16 -5.6 °C -13.9 °C 34361.1 hPa SSW 16.6 km/h 16.6 km/h 38 % 0 mm
14:21 -5.6 °C -14.1 °C 34361.1 hPa ESE 17.9 km/h 17.9 km/h 37 % 0 mm
14:26 -5.4 °C -13.7 °C 34361.1 hPa ESE 15 km/h 15 km/h 38 % 0 mm
14:31 -5.3 °C -13.9 °C 34361.1 hPa ESE 22.5 km/h 22.5 km/h 37 % 0 mm
14:36 -5.2 °C -14 °C 34361.1 hPa East 15 km/h 15 km/h 36 % 0 mm
14:41 -5.3 °C -13.9 °C 34361.1 hPa SSW 14.5 km/h 14.5 km/h 37 % 0 mm
14:46 -5.2 °C -14 °C 34361.1 hPa ESE 26.9 km/h 26.9 km/h 36 % 0 mm
14:51 -5.4 °C -14 °C 34361.1 hPa ESE 20.9 km/h 20.9 km/h 37 % 0 mm
14:56 -5.3 °C -14.1 °C 34361.1 hPa South 26.9 km/h 26.9 km/h 36 % 0 mm
15:01 -5.3 °C -14.3 °C 34361.1 hPa East 17.9 km/h 17.9 km/h 35 % 0 mm
15:06 -5.4 °C -14.2 °C 34361.1 hPa SSE 15 km/h 15 km/h 36 % 0 mm
15:12 -5.4 °C -14.2 °C 34327.3 hPa ESE 15 km/h 16.1 km/h 36 % 0 mm
15:17 -5.4 °C -14.2 °C 34327.3 hPa East 15 km/h 15 km/h 36 % 0 mm
15:22 -5.3 °C -14.1 °C 34327.3 hPa ESE 15 km/h 15 km/h 36 % 0 mm
15:27 -5.5 °C -14.3 °C 34361.1 hPa SSE 20.9 km/h 20.9 km/h 36 % 0 mm
15:32 -5.8 °C -14.5 °C 34361.1 hPa NNE 38.8 km/h 38.8 km/h 36 % 0 mm
15:37 -5.7 °C -14.5 °C 34361.1 hPa ESE 32.8 km/h 32.8 km/h 36 % 0 mm
15:42 -5.7 °C -14.4 °C 34361.1 hPa ENE 26.9 km/h 26.9 km/h 36 % 0 mm
15:47 -5.9 °C -14.6 °C 34361.1 hPa ESE 25.1 km/h 25.1 km/h 36 % 0 mm
15:52 -5.9 °C -14.7 °C 34361.1 hPa ENE 32.8 km/h 32.8 km/h 36 % 0 mm
15:57 -5.7 °C -14.2 °C 34327.3 hPa ESE 25.1 km/h 25.1 km/h 37 % 0 mm
16:02 -5.8 °C -14.5 °C 34327.3 hPa ESE 26.9 km/h 26.9 km/h 36 % 0 mm
16:07 -5.8 °C -14.6 °C 34327.3 hPa ESE 27.7 km/h 27.7 km/h 36 % 0 mm
16:12 -5.6 °C -14.3 °C 34361.1 hPa East 22 km/h 22 km/h 36 % 0 mm
16:17 -5.7 °C -14.5 °C 34361.1 hPa SE 29.8 km/h 29.8 km/h 36 % 0 mm
16:22 -5.7 °C -14.4 °C 34361.1 hPa SSE 20.9 km/h 20.9 km/h 36 % 0 mm
16:27 -5.7 °C -14.5 °C 34361.1 hPa ESE 32.8 km/h 32.8 km/h 36 % 0 mm
16:32 -5.8 °C -14.6 °C 34361.1 hPa ESE 29.8 km/h 29.8 km/h 36 % 0 mm
16:37 -5.9 °C -14.6 °C 34361.1 hPa ESE 33.2 km/h 33.2 km/h 36 % 0 mm
16:42 -5.9 °C -14.7 °C 34361.1 hPa ESE 28.2 km/h 28.2 km/h 36 % 0 mm
16:47 -6 °C -14.7 °C 34361.1 hPa ESE 38.8 km/h 38.8 km/h 36 % 0 mm
16:52 -6.1 °C -14.8 °C 34361.1 hPa ENE 15 km/h 15 km/h 36 % 0 mm
16:57 -6.2 °C -14.7 °C 34361.1 hPa SE 35.7 km/h 35.7 km/h 37 % 0 mm
17:02 -6.3 °C -14.7 °C 34361.1 hPa ESE 23.8 km/h 23.8 km/h 37 % 0 mm
17:07 -6.4 °C -14.9 °C 34361.1 hPa ESE 32.8 km/h 32.8 km/h 37 % 0 mm
17:12 -6.4 °C -14.9 °C 34361.1 hPa ESE 29.8 km/h 29.8 km/h 37 % 0 mm
17:17 -6.4 °C -14.7 °C 34361.1 hPa East 26.9 km/h 26.9 km/h 38 % 0 mm
17:22 -6.7 °C -14.9 °C 34361.1 hPa ESE 32.8 km/h 32.8 km/h 38 % 0 mm
17:27 -6.7 °C -14.9 °C 34361.1 hPa ESE 20.9 km/h 20.9 km/h 38 % 0 mm
17:32 -6.9 °C -14.7 °C 34361.1 hPa ESE 32.8 km/h 32.8 km/h 40 % 0 mm
17:37 -6.9 °C -14.7 °C 34361.1 hPa ENE 23.8 km/h 23.8 km/h 40 % 0 mm
17:42 -6.9 °C -14.4 °C 34361.1 hPa NE 23.8 km/h 23.8 km/h 41 % 0 mm
17:47 -6.8 °C -14.4 °C 34361.1 hPa East 20.9 km/h 20.9 km/h 41 % 0 mm
17:52 -6.9 °C -14.3 °C 34361.1 hPa ENE 32.8 km/h 32.8 km/h 42 % 0 mm
17:57 -7.1 °C -14.4 °C 34361.1 hPa ENE 26.9 km/h 26.9 km/h 42 % 0 mm
18:02 -6.9 °C -14.1 °C 34361.1 hPa ENE 26.9 km/h 26.9 km/h 43 % 0 mm
18:07 -7.1 °C -14.2 °C 34361.1 hPa ENE 33.2 km/h 33.2 km/h 43 % 0 mm
18:12 -7.1 °C -14.3 °C 34361.1 hPa East 20.9 km/h 20.9 km/h 43 % 0 mm
18:17 -7.2 °C -14.2 °C 34361.1 hPa ESE 26.9 km/h 26.9 km/h 44 % 0 mm
18:22 -7.3 °C -14.1 °C 34361.1 hPa ESE 26.9 km/h 26.9 km/h 45 % 0 mm
18:27 -7.4 °C -14.2 °C 34361.1 hPa East 23.8 km/h 23.8 km/h 45 % 0 mm
18:32 -7.4 °C -14.2 °C 34361.1 hPa ESE 26.9 km/h 26.9 km/h 45 % 0 mm
18:42 -7.6 °C -14.1 °C 34361.1 hPa East 26.9 km/h 26.9 km/h 46 % 0 mm
18:47 -7.6 °C -14.2 °C 34361.1 hPa NNE 23.8 km/h 23.8 km/h 46 % 0 mm
18:52 -7.6 °C -14.2 °C 34361.1 hPa East 20.9 km/h 20.9 km/h 46 % 0 mm
18:57 -7.7 °C -14.1 °C 34361.1 hPa SE 23.8 km/h 23.8 km/h 47 % 0 mm
19:02 -7.7 °C -13.9 °C 34361.1 hPa SE 15 km/h 15 km/h 48 % 0 mm
19:07 -7.8 °C -13.9 °C 34361.1 hPa ESE 26.9 km/h 26.9 km/h 49 % 0 mm
19:12 -7.9 °C -13.9 °C 34361.1 hPa East 9.8 km/h 10.3 km/h 49 % 0 mm
19:17 -8 °C -14 °C 34361.1 hPa SE 23.8 km/h 23.8 km/h 49 % 0 mm
19:22 -8.2 °C -14.1 °C 34361.1 hPa SSE 20.9 km/h 20.9 km/h 50 % 0 mm
19:27 -8.4 °C -13.9 °C 34395 hPa SE 23.8 km/h 23.8 km/h 52 % 0 mm
19:32 -8.4 °C -13.9 °C 34395 hPa South 15 km/h 15 km/h 52 % 0 mm
19:37 -8.5 °C -13.8 °C 34395 hPa ESE 11.9 km/h 11.9 km/h 53 % 0 mm
19:42 -8.6 °C -13.8 °C 34395 hPa East 15 km/h 15 km/h 54 % 0 mm
19:47 -8.7 °C -14 °C 34395 hPa SE 22.5 km/h 22.5 km/h 53 % 0 mm
19:52 -8.7 °C -14.1 °C 34395 hPa South 26.9 km/h 26.9 km/h 53 % 0 mm
19:57 -8.8 °C -13.9 °C 34395 hPa ESE 20.9 km/h 20.9 km/h 54 % 0 mm
20:02 -8.9 °C -14.1 °C 34395 hPa East 20.9 km/h 20.9 km/h 54 % 0 mm
20:07 -9.1 °C -14.1 °C 34395 hPa East 26.9 km/h 26.9 km/h 55 % 0 mm
20:12 -9.2 °C -14 °C 34361.1 hPa ENE 23.8 km/h 23.8 km/h 56 % 0 mm
20:17 -9.2 °C -13.9 °C 34361.1 hPa ESE 20.9 km/h 20.9 km/h 57 % 0 mm
20:22 -9.3 °C -13.8 °C 34361.1 hPa SE 20.9 km/h 20.9 km/h 59 % 0 mm
20:27 -9.4 °C -13.7 °C 34361.1 hPa East 20.9 km/h 20.9 km/h 60 % 0 mm
20:30 -10.7 °C -13.4 °C 34428.8 hPa East 7.7 km/h 7.7 km/h 72 % 0 mm
20:32 -9.4 °C -13.7 °C 34361.1 hPa ESE 17.9 km/h 17.9 km/h 60 % 0 mm
20:37 -9.5 °C -13.7 °C 34361.1 hPa ESE 26.9 km/h 26.9 km/h 61 % 0 mm
20:40 -10.7 °C -13.3 °C 34395 hPa ENE 5.1 km/h 10.3 km/h 73 % 0 mm
20:42 -9.6 °C -13.7 °C 34395 hPa ENE 23.8 km/h 23.8 km/h 61 % 0 mm
20:47 -9.6 °C -13.6 °C 34395 hPa ESE 17.9 km/h 17.9 km/h 62 % 0 mm
20:52 -9.6 °C -13.6 °C 34395 hPa ENE 15 km/h 15 km/h 62 % 0 mm
20:57 -9.6 °C -13.6 °C 34361.1 hPa East 17.9 km/h 17.9 km/h 62 % 0 mm
21:00 -10.7 °C -13.3 °C 34395 hPa ENE 7.7 km/h 10.3 km/h 73 % 0 mm
21:02 -9.7 °C -13.6 °C 34361.1 hPa ENE 11.9 km/h 11.9 km/h 63 % 0 mm
21:07 -9.7 °C -13.4 °C 34361.1 hPa ENE 20.9 km/h 20.9 km/h 64 % 0 mm
21:10 -10.7 °C -13.3 °C 34395 hPa ENE 5.1 km/h 10.3 km/h 73 % 0 mm
21:12 -9.8 °C -13.4 °C 34395 hPa East 22 km/h 22 km/h 65 % 0 mm
21:17 -9.8 °C -13.3 °C 34395 hPa NNE 26.9 km/h 26.9 km/h 66 % 0 mm
21:20 -10.7 °C -13.3 °C 34395 hPa ENE 7.7 km/h 10.3 km/h 73 % 0 mm
21:22 -9.8 °C -13.3 °C 34395 hPa ESE 26.9 km/h 26.9 km/h 66 % 0 mm
21:27 -9.9 °C -13.4 °C 34361.1 hPa ESE 20.9 km/h 20.9 km/h 66 % 0 mm
21:30 -10.8 °C -13.3 °C 34395 hPa NE 12.9 km/h 12.9 km/h 74 % 0 mm
21:32 -9.9 °C -13.3 °C 34361.1 hPa ENE 20.9 km/h 20.9 km/h 67 % 0 mm
21:37 -9.9 °C -13.3 °C 34361.1 hPa ENE 15 km/h 15 km/h 67 % 0 mm
21:40 -10.8 °C -13.3 °C 34395 hPa NE 12.9 km/h 12.9 km/h 74 % 0 mm
21:42 -10 °C -13.4 °C 34395 hPa ENE 15 km/h 15 km/h 67 % 0 mm
21:47 -10 °C -13.2 °C 34395 hPa East 22 km/h 22 km/h 68 % 0 mm
21:50 -10.9 °C -13.4 °C 34395 hPa ENE 7.7 km/h 15.6 km/h 74 % 0 mm
21:52 -10.1 °C -13.3 °C 34395 hPa NNE 20.3 km/h 20.3 km/h 68 % 0 mm
21:57 -10.1 °C -13.3 °C 34395 hPa ENE 26.9 km/h 26.9 km/h 68 % 0 mm
22:00 -10.9 °C -13.4 °C 34395 hPa ENE 7.7 km/h 15.6 km/h 74 % 0 mm
22:02 -10.1 °C -13.3 °C 34395 hPa ESE 26.9 km/h 26.9 km/h 68 % 0 mm
22:07 -10.1 °C -13.3 °C 34395 hPa ESE 20.9 km/h 20.9 km/h 68 % 0 mm
22:10 -10.9 °C -13.4 °C 34361.1 hPa ENE 7.7 km/h 10.3 km/h 74 % 0 mm
22:12 -10.1 °C -13.3 °C 34428.8 hPa ENE 20.9 km/h 20.9 km/h 68 % 0 mm
22:17 -10.1 °C -13.3 °C 34428.8 hPa SSW 9 km/h 11.1 km/h 68 % 0 mm
22:20 -10.9 °C -13.4 °C 34361.1 hPa ENE 5.1 km/h 10.3 km/h 74 % 0 mm
22:22 -10.1 °C -13.3 °C 34428.8 hPa ENE 15 km/h 15 km/h 68 % 0 mm
22:27 -10.2 °C -13.4 °C 34428.8 hPa ENE 15 km/h 15 km/h 68 % 0 mm
22:30 -10.9 °C -13.4 °C 34395 hPa NE 2.6 km/h 7.7 km/h 74 % 0 mm
22:32 -10.2 °C -13.4 °C 34428.8 hPa NE 11.9 km/h 11.9 km/h 68 % 0 mm
22:37 -10.2 °C -13.4 °C 34428.8 hPa ESE 17.9 km/h 17.9 km/h 68 % 0 mm
22:40 -10.9 °C -13.4 °C 34395 hPa ENE 2.6 km/h 5.1 km/h 74 % 0 mm
22:42 -10.2 °C -13.4 °C 34428.8 hPa NE 15 km/h 15 km/h 68 % 0 mm
22:47 -10.2 °C -13.4 °C 34428.8 hPa ENE 10.3 km/h 10.3 km/h 68 % 0 mm
22:50 -10.9 °C -13.5 °C 34395 hPa ENE 5.1 km/h 5.1 km/h 73 % 0 mm
22:52 -10.3 °C -13.5 °C 34428.8 hPa NNE 15.6 km/h 15.6 km/h 68 % 0 mm
22:57 -10.3 °C -13.5 °C 34428.8 hPa East 15 km/h 15 km/h 68 % 0 mm
23:00 -10.9 °C -13.5 °C 34395 hPa ENE 7.7 km/h 12.9 km/h 73 % 0 mm
23:02 -10.3 °C -13.6 °C 34428.8 hPa ENE 11.9 km/h 11.9 km/h 67 % 0 mm
23:07 -10.3 °C -13.6 °C 34428.8 hPa ENE 11.9 km/h 11.9 km/h 68 % 0 mm
23:10 -10.9 °C -13.6 °C 34395 hPa East 12.9 km/h 15.6 km/h 73 % 0 mm
23:12 -10.3 °C -13.6 °C 34428.8 hPa ESE 11.9 km/h 11.9 km/h 68 % 0 mm
23:17 -10.3 °C -13.6 °C 34428.8 hPa ENE 11.9 km/h 11.9 km/h 68 % 0 mm
23:20 -10.9 °C -13.6 °C 34395 hPa ESE 7.7 km/h 10.3 km/h 73 % 0 mm
23:22 -10.3 °C -13.6 °C 34428.8 hPa East 15 km/h 15 km/h 68 % 0 mm
23:27 -10.4 °C -13.6 °C 34428.8 hPa ESE 15 km/h 15 km/h 68 % 0 mm
23:30 -10.9 °C -13.6 °C 34395 hPa East 7.7 km/h 10.3 km/h 73 % 0 mm
23:32 -10.4 °C -13.6 °C 34428.8 hPa ENE 11.9 km/h 11.9 km/h 68 % 0 mm
23:37 -10.4 °C -13.6 °C 34428.8 hPa ENE 11.9 km/h 11.9 km/h 68 % 0 mm
23:40 -10.9 °C -13.6 °C 34395 hPa ENE 5.1 km/h 15.6 km/h 73 % 0 mm
23:42 -10.4 °C -13.5 °C 34395 hPa ESE 14 km/h 14 km/h 69 % 0 mm
23:47 -10.4 °C -13.6 °C 34395 hPa ESE 9 km/h 9 km/h 68 % 0 mm
23:57 -10.4 °C -13.6 °C 34395 hPa East 11.9 km/h 11.9 km/h 69 % 0 mm
Meteo Sesrovires
Elogis d' Weather Underground - 2 mb

Guio original per  Jim McMurry - jmcmurry@mwt.net Adaptat per a la plantilla per  Wim van der Kuil - Leuven-Template.eu

Trobareu la nostra informacio del temps tambe a:

Weather Underground

AWEKAS